Amanda Park, Washington
Current Conditions -  °F | °C
As of 11:53 AM on Monday 24 Nov 2014 (Local Time) from KHQM Reporting Station
Haze Haze  
Wind Chill:   Ceiling: 8000
Heat Index:   Visibility: 6mi
Dew Point:   Wind: 9mph
Humidity: 89%   Direction: 50°NE
Pressure: 30.26"   Gusts: NA
Location:  47.46°N, 123.89°W
Report Text: KHQM 241953Z AUTO 05008KT 6SM BR OVC080 09/07 A3026 RMK AO2 SLP251 T00890072
Loading
Personal Weather Stations






























Interactive Weather Map New forecast layout! Learn more

10-Day Weather Forecast

Advertisements
Track Severe Weather on mobile